Time;durP1;ratioP1;P1;durP2;ratioP2;P2;SDS_P1;SDS_P2;PMS_P1;PMS_P2;Temp;Humidity;BMP_temperature;BMP_pressure;BME280_temperature;BME280_humidity;BME280_pressure;Samples;Min_cycle;Max_cycle;Signal;HPM_P1;HPM_P2
2021/05/27 00:02:21;;;;;;;3.85;3.22;;;;;;;6.50;100.00;97982.44;3820911;76;43085;-25
2021/05/27 00:07:26;;;;;;;5.27;3.40;;;;;;;6.50;100.00;97979.26;3738513;79;69116;-25
2021/05/27 00:12:32;;;;;;;4.37;3.50;;;;;;;6.48;100.00;97978.08;3785847;77;44199;-25
2021/05/27 00:17:38;;;;;;;5.60;4.10;;;;;;;6.47;100.00;97980.87;3674781;79;69029;-25
2021/05/27 00:22:45;;;;;;;5.45;4.47;;;;;;;6.55;100.00;97988.18;3788867;78;43331;-23
2021/05/27 00:27:52;;;;;;;5.60;4.70;;;;;;;6.60;100.00;97990.77;3784541;78;69293;-23
2021/05/27 00:32:58;;;;;;;6.87;4.93;;;;;;;6.60;100.00;97985.92;3742355;79;44142;-22
2021/05/27 00:38:05;;;;;;;6.60;4.97;;;;;;;6.56;100.00;97984.52;3793373;77;43689;-23
2021/05/27 00:43:11;;;;;;;6.83;5.55;;;;;;;6.59;100.00;97980.22;3785606;78;44095;-23
2021/05/27 00:53:42;;;;;;;6.83;5.08;;;;;;;6.53;100.00;97989.67;3794473;76;44024;-23
2021/05/27 00:58:50;;;;;;;7.53;5.63;;;;;;;6.50;100.00;97988.63;3805431;77;69517;-23
2021/05/27 01:03:55;;;;;;;8.03;5.47;;;;;;;6.52;100.00;97989.33;3732722;79;44094;-23
2021/05/27 01:09:04;;;;;;;7.13;6.07;;;;;;;6.53;100.00;97985.66;3806748;76;43326;-23
2021/05/27 01:15:25;;;;;;;6.77;5.80;;;;;;;6.50;100.00;97977.92;3808986;77;43909;-23
2021/05/27 01:19:25;;;;;;;6.87;6.00;;;;;;;6.46;100.00;97990.75;3818550;77;26567;-23
2021/05/27 01:24:31;;;;;;;11.23;6.13;;;;;;;6.38;100.00;97983.95;3812125;76;43698;-23
2021/05/27 01:29:38;;;;;;;10.13;5.77;;;;;;;6.31;100.00;97982.83;3820862;77;43293;-24
2021/05/27 01:34:44;;;;;;;8.37;6.63;;;;;;;6.26;100.00;97994.48;3813881;77;43673;-25
2021/05/27 01:39:50;;;;;;;10.73;6.90;;;;;;;6.27;100.00;97986.80;3822517;76;43710;-25
2021/05/27 01:44:56;;;;;;;9.28;6.90;;;;;;;6.31;100.00;97986.84;3826262;77;69294;-23
2021/05/27 01:50:03;;;;;;;10.50;7.10;;;;;;;6.34;100.00;97994.59;3818387;77;43377;-24
2021/05/27 01:55:11;;;;;;;9.88;7.50;;;;;;;6.44;100.00;97994.58;3821543;76;43682;-24
2021/05/27 02:00:21;;;;;;;8.98;7.33;;;;;;;6.39;100.00;97996.83;3808064;77;43343;-25
2021/05/27 02:05:32;;;;;;;11.07;7.83;;;;;;;6.35;100.00;97998.13;3805815;77;26901;-25
2021/05/27 02:10:40;;;;;;;8.63;6.85;;;;;;;6.34;100.00;98003.95;3802830;77;69456;-24
2021/05/27 02:15:47;;;;;;;9.13;7.20;;;;;;;6.33;100.00;98002.27;3798560;77;69082;-24
2021/05/27 02:20:54;;;;;;;11.18;7.72;;;;;;;6.37;100.00;97992.11;3818277;77;44075;-24
2021/05/27 02:26:03;;;;;;;10.83;8.40;;;;;;;6.38;100.00;97993.33;3817320;77;75405;-26
2021/05/27 02:31:10;;;;;;;9.95;8.33;;;;;;;6.43;100.00;97996.39;3845703;77;26452;-25
2021/05/27 02:36:19;;;;;;;12.58;8.98;;;;;;;6.48;100.00;97995.95;3850367;77;26357;-25
2021/05/27 02:41:27;;;;;;;11.12;9.10;;;;;;;6.50;100.00;97996.65;3833799;77;44019;-25
2021/05/27 02:46:35;;;;;;;10.77;8.67;;;;;;;6.61;100.00;97997.80;3837390;77;75376;-25
2021/05/27 02:51:41;;;;;;;10.70;9.23;;;;;;;6.68;100.00;98003.42;3833024;77;43964;-25
2021/05/27 02:56:47;;;;;;;10.32;8.55;;;;;;;6.76;100.00;98000.84;3810745;76;44036;-25
2021/05/27 03:01:55;;;;;;;11.13;9.10;;;;;;;6.78;100.00;98005.56;3777149;76;26929;-20
2021/05/27 03:07:01;;;;;;;11.20;8.90;;;;;;;6.85;100.00;98009.00;3803353;77;43427;-20
2021/05/27 03:12:10;;;;;;;12.70;9.23;;;;;;;6.88;100.00;98008.72;3808770;76;43971;-21
2021/05/27 03:17:18;;;;;;;13.43;9.38;;;;;;;6.92;100.00;98006.06;3735981;77;26409;-20
2021/05/27 03:22:25;;;;;;;11.53;9.07;;;;;;;6.99;100.00;98013.88;3829168;76;43706;-21
2021/05/27 03:27:32;;;;;;;12.10;8.67;;;;;;;7.00;100.00;98012.85;3743268;77;44075;-22
2021/05/27 03:32:41;;;;;;;10.35;8.30;;;;;;;7.03;100.00;98021.94;3816596;76;26464;-20
2021/05/27 03:37:47;;;;;;;10.57;8.67;;;;;;;7.11;100.00;98013.67;3807691;76;75332;-21
2021/05/27 03:42:58;;;;;;;10.80;8.77;;;;;;;7.11;100.00;98016.35;3809860;77;26370;-20
2021/05/27 03:48:08;;;;;;;9.70;8.17;;;;;;;7.10;100.00;98028.89;3809482;76;26406;-20
2021/05/27 03:53:15;;;;;;;10.53;8.40;;;;;;;7.15;100.00;98029.78;3748660;77;43379;-20
2021/05/27 04:09:12;;;;;;;10.90;8.05;;;;;;;7.21;100.00;98032.70;3784340;77;43286;-20
2021/05/27 04:14:17;;;;;;;11.60;8.45;;;;;;;7.27;100.00;98049.19;3741006;79;43444;-20
2021/05/27 04:19:24;;;;;;;10.10;8.23;;;;;;;7.27;100.00;98050.02;3785284;78;43715;-21
2021/05/27 04:24:31;;;;;;;10.38;8.90;;;;;;;7.29;100.00;98046.70;3740127;78;44038;-19
2021/05/27 04:29:38;;;;;;;13.98;9.35;;;;;;;7.36;100.00;98049.63;3790787;77;43153;-21
2021/05/27 04:34:44;;;;;;;11.73;9.70;;;;;;;7.38;100.00;98049.81;3742045;78;44033;-21
2021/05/27 04:39:52;;;;;;;12.43;10.00;;;;;;;7.44;100.00;98048.37;3781430;77;77424;-20
2021/05/27 04:44:58;;;;;;;12.17;10.30;;;;;;;7.48;100.00;98047.08;3782013;77;43332;-21
2021/05/27 04:50:08;;;;;;;14.85;10.48;;;;;;;7.54;100.00;98063.06;3783710;78;44482;-21
2021/05/27 04:55:15;;;;;;;12.27;9.40;;;;;;;7.59;100.00;98063.42;3778632;77;44178;-19
2021/05/27 05:00:24;;;;;;;14.07;10.93;;;;;;;7.67;100.00;98066.22;3739206;77;43356;-20
2021/05/27 05:05:31;;;;;;;14.83;10.05;;;;;;;7.75;100.00;98060.58;3742180;77;43317;-20
2021/05/27 05:10:38;;;;;;;13.38;10.38;;;;;;;7.79;100.00;98062.80;3739299;77;44076;-20
2021/05/27 05:15:44;;;;;;;12.75;9.93;;;;;;;7.87;100.00;98075.45;3657772;80;43435;-21
2021/05/27 05:20:50;;;;;;;13.60;10.40;;;;;;;7.93;100.00;98070.84;3654730;80;42821;-21
2021/05/27 05:25:57;;;;;;;12.95;9.73;;;;;;;7.96;100.00;98070.51;3649626;80;44002;-21
2021/05/27 05:31:03;;;;;;;12.88;9.88;;;;;;;8.11;100.00;98076.20;3698786;79;44026;-22
2021/05/27 05:36:09;;;;;;;12.20;9.43;;;;;;;8.23;100.00;98066.05;3733681;79;44082;-22
2021/05/27 05:41:16;;;;;;;10.80;8.43;;;;;;;8.33;100.00;98064.13;3745068;79;44529;-22
2021/05/27 05:46:21;;;;;;;9.63;8.33;;;;;;;8.42;100.00;98070.89;3733185;77;43490;-20
2021/05/27 05:51:27;;;;;;;11.37;8.43;;;;;;;8.49;100.00;98078.70;3651384;79;44200;-23
2021/05/27 05:56:33;;;;;;;10.27;8.33;;;;;;;8.58;100.00;98073.73;3688067;79;44173;-21
2021/05/27 06:01:39;;;;;;;10.15;7.65;;;;;;;8.69;100.00;98067.75;3723319;79;43678;-20
2021/05/27 06:06:45;;;;;;;8.53;7.43;;;;;;;8.79;100.00;98062.63;3736950;79;69164;-20
2021/05/27 06:11:53;;;;;;;7.95;6.75;;;;;;;8.98;100.00;98067.42;3732503;79;26383;-20
2021/05/27 06:17:00;;;;;;;7.90;6.20;;;;;;;8.80;100.00;98070.17;3735336;77;43748;-20
2021/05/27 06:22:07;;;;;;;7.70;6.43;;;;;;;8.81;100.00;98079.09;3725175;79;69526;-23
2021/05/27 06:27:18;;;;;;;6.20;5.58;;;;;;;8.83;100.00;98075.72;3721914;79;26805;-20
2021/05/27 06:32:24;;;;;;;6.53;5.65;;;;;;;9.03;100.00;98069.62;3717769;79;43678;-20
2021/05/27 06:37:30;;;;;;;7.00;5.87;;;;;;;9.24;100.00;98076.78;3710616;79;43330;-20
2021/05/27 06:42:37;;;;;;;8.70;5.70;;;;;;;9.48;100.00;98077.88;3714941;78;44579;-21
2021/05/27 06:47:44;;;;;;;7.22;5.40;;;;;;;9.60;100.00;98086.50;3714658;79;43344;-22
2021/05/27 06:52:51;;;;;;;6.78;5.80;;;;;;;9.60;100.00;98085.16;3713883;79;43992;-22
2021/05/27 06:57:58;;;;;;;6.20;5.20;;;;;;;9.63;100.00;98077.25;3674460;80;43706;-21
2021/05/27 07:03:05;;;;;;;6.37;4.45;;;;;;;9.80;100.00;98068.72;3803378;76;43987;-21
2021/05/27 07:08:11;;;;;;;6.15;5.00;;;;;;;9.84;100.00;98074.95;3809407;77;44000;-22
2021/05/27 07:13:17;;;;;;;6.85;4.92;;;;;;;9.96;100.00;98076.84;3758847;78;42949;-22
2021/05/27 07:18:23;;;;;;;5.92;4.67;;;;;;;9.99;100.00;98083.24;3695115;79;42930;-22
2021/05/27 07:23:29;;;;;;;4.65;4.03;;;;;;;10.12;100.00;98092.65;3792880;76;43743;-22
2021/05/27 07:28:36;;;;;;;4.78;3.08;;;;;;;10.23;100.00;98095.02;3809608;77;43351;-21
2021/05/27 07:33:41;;;;;;;3.10;2.80;;;;;;;10.30;100.00;98081.72;3766649;77;42838;-21
2021/05/27 07:38:47;;;;;;;3.10;2.80;;;;;;;10.45;100.00;98088.16;3825004;76;43681;-21
2021/05/27 07:43:53;;;;;;;3.12;2.72;;;;;;;10.39;100.00;98101.45;3816319;77;43421;-21
2021/05/27 07:48:59;;;;;;;3.27;2.75;;;;;;;10.30;100.00;98091.15;3703069;79;44510;-21
2021/05/27 07:54:06;;;;;;;3.22;2.80;;;;;;;10.32;100.00;98090.48;3766379;77;43706;-21
2021/05/27 07:59:13;;;;;;;3.12;2.70;;;;;;;10.55;100.00;98076.36;3742187;78;43710;-21
2021/05/27 08:04:20;;;;;;;2.85;1.80;;;;;;;10.93;100.00;98086.94;3808590;76;43447;-21
2021/05/27 08:09:26;;;;;;;2.77;1.92;;;;;;;11.05;100.00;98069.88;3812883;76;44197;-22
2021/05/27 08:14:33;;;;;;;2.30;2.10;;;;;;;10.92;100.00;98093.83;3821323;77;44397;-21
2021/05/27 08:19:40;;;;;;;2.10;1.90;;;;;;;10.96;100.00;98084.40;3743563;77;43422;-21
2021/05/27 08:24:48;;;;;;;2.12;1.70;;;;;;;11.12;100.00;98100.17;3809963;76;44081;-22
2021/05/27 08:29:54;;;;;;;2.47;2.10;;;;;;;10.99;100.00;98085.90;3742330;78;42732;-21
2021/05/27 08:35:00;;;;;;;2.30;2.00;;;;;;;10.87;100.00;98097.56;3733552;78;44012;-19
2021/05/27 08:40:08;;;;;;;1.90;1.70;;;;;;;10.79;100.00;98103.80;3719353;78;44027;-21
2021/05/27 08:45:15;;;;;;;2.27;2.08;;;;;;;10.74;100.00;98125.87;3828967;77;44119;-21
2021/05/27 08:50:29;;;;;;;2.72;2.10;;;;;;;10.65;100.00;98108.00;3823698;76;43701;-21
2021/05/27 08:55:32;;;;;;;3.02;2.62;;;;;;;10.48;100.00;98122.84;3815986;77;43681;-21
2021/05/27 09:00:38;;;;;;;3.52;2.83;;;;;;;10.36;100.00;98124.64;3812676;76;44058;-20
2021/05/27 09:05:44;;;;;;;4.72;3.25;;;;;;;10.23;100.00;98138.61;3819140;76;44066;-20
2021/05/27 09:10:51;;;;;;;3.70;3.27;;;;;;;10.11;100.00;98139.44;3818132;76;43953;-20
2021/05/27 09:16:06;;;;;;;4.22;3.72;;;;;;;10.09;100.00;98135.55;3820001;76;43492;-20
2021/05/27 09:21:15;;;;;;;4.62;3.92;;;;;;;10.09;100.00;98150.88;3805189;77;43301;-21
2021/05/27 09:26:22;;;;;;;5.08;3.72;;;;;;;10.04;100.00;98156.75;3738197;79;44047;-21
2021/05/27 09:31:31;;;;;;;4.85;4.15;;;;;;;9.96;100.00;98166.13;3820534;76;43433;-21
2021/05/27 09:36:36;;;;;;;6.72;4.70;;;;;;;9.80;100.00;98162.40;3687778;80;43416;-19
2021/05/27 09:41:41;;;;;;;6.45;4.55;;;;;;;9.75;100.00;98178.69;3818188;77;43650;-20
2021/05/27 09:46:52;;;;;;;5.47;4.95;;;;;;;9.85;100.00;98165.95;3823761;76;43437;-20
2021/05/27 09:51:59;;;;;;;5.25;4.30;;;;;;;10.03;100.00;98172.56;3817999;77;44024;-19
2021/05/27 09:57:08;;;;;;;6.15;5.05;;;;;;;9.96;100.00;98167.47;3825197;77;43329;-22
2021/05/27 10:02:16;;;;;;;5.97;5.30;;;;;;;9.93;100.00;98159.75;3817385;76;43689;-19
2021/05/27 10:07:39;;;;;;;6.33;5.72;;;;;;;9.90;100.00;98159.55;3817537;77;44078;-20
2021/05/27 10:12:48;;;;;;;9.15;6.55;;;;;;;9.87;100.00;98158.55;3816974;76;44046;-20
2021/05/27 10:17:58;;;;;;;6.42;5.53;;;;;;;10.06;100.00;98143.95;3823447;76;44012;-20
2021/05/27 10:23:04;;;;;;;7.00;5.40;;;;;;;10.24;100.00;98148.37;3834091;77;44094;-20
2021/05/27 10:28:12;;;;;;;1.20;0.80;;;;;;;10.03;100.00;98196.78;3754531;79;44051;-21
2021/05/27 10:33:19;;;;;;;2.10;0.80;;;;;;;8.79;100.00;98215.73;3821463;76;43989;-22
2021/05/27 10:39:03;;;;;;;1.45;0.80;;;;;;;8.26;100.00;98218.73;3830241;76;44516;-22
2021/05/27 10:44:15;;;;;;;2.58;1.00;;;;;;;8.22;100.00;98214.65;3712901;78;44404;-22
2021/05/27 10:50:08;;;;;;;1.50;1.00;;;;;;;8.16;100.00;98226.00;3715768;77;44404;-22
2021/05/27 10:56:02;;;;;;;0.83;0.80;;;;;;;8.20;100.00;98234.59;3814480;77;44017;-22
2021/05/27 11:01:53;;;;;;;0.95;0.75;;;;;;;8.33;100.00;98237.25;3823011;76;26478;-23
2021/05/27 11:07:20;;;;;;;0.70;0.70;;;;;;;8.24;100.00;98246.21;3733681;77;44066;-22
2021/05/27 11:12:35;;;;;;;0.70;0.70;;;;;;;8.33;100.00;98250.67;3800302;76;43958;-22
2021/05/27 11:17:43;;;;;;;1.10;0.80;;;;;;;8.40;100.00;98250.08;3760871;77;43685;-22
2021/05/27 11:23:04;;;;;;;1.00;0.75;;;;;;;8.56;100.00;98244.89;3744151;77;43694;-22
2021/05/27 11:28:35;;;;;;;0.70;0.70;;;;;;;8.55;100.00;98241.86;3739120;79;43358;-22
2021/05/27 11:33:42;;;;;;;0.80;0.80;;;;;;;8.58;100.00;98245.58;3821110;76;42789;-22
2021/05/27 11:38:48;;;;;;;1.20;0.90;;;;;;;8.59;100.00;98250.44;3821320;76;43626;-21
2021/05/27 11:43:57;;;;;;;0.75;0.75;;;;;;;8.58;100.00;98259.01;3817441;77;43366;-21
2021/05/27 11:49:05;;;;;;;1.00;0.70;;;;;;;8.52;100.00;98250.23;3816691;76;44529;-22
2021/05/27 11:54:13;;;;;;;1.00;0.90;;;;;;;8.58;100.00;98248.27;3805041;76;73303;-22
2021/05/27 11:59:25;;;;;;;1.05;0.98;;;;;;;8.76;100.00;98256.33;3737960;79;43994;-22
2021/05/27 12:04:34;;;;;;;2.25;1.10;;;;;;;8.77;100.00;98253.13;3820771;76;44487;-21
2021/05/27 12:09:45;;;;;;;1.40;1.30;;;;;;;8.84;100.00;98257.39;3803091;76;43424;-22
2021/05/27 12:14:54;;;;;;;1.37;1.27;;;;;;;8.89;100.00;98253.23;3821153;76;44078;-21
2021/05/27 12:20:07;;;;;;;1.40;1.30;;;;;;;8.89;100.00;98257.78;3732110;77;43687;-21
2021/05/27 12:25:13;;;;;;;1.40;1.30;;;;;;;9.07;100.00;98248.36;3803152;76;73275;-21
2021/05/27 12:30:22;;;;;;;2.10;1.17;;;;;;;9.11;100.00;98255.13;3809705;77;43441;-21
2021/05/27 12:35:30;;;;;;;2.12;1.70;;;;;;;9.16;100.00;98247.93;3799597;76;44210;-21
2021/05/27 12:40:40;;;;;;;2.75;2.08;;;;;;;9.24;100.00;98239.91;3751742;77;43689;-21
2021/05/27 12:45:48;;;;;;;3.45;2.60;;;;;;;9.47;100.00;98246.94;3712336;78;43712;-21
2021/05/27 12:51:07;;;;;;;2.52;2.33;;;;;;;9.79;100.00;98246.80;3825491;77;44071;-21
2021/05/27 12:56:19;;;;;;;2.75;2.00;;;;;;;10.40;100.00;98246.73;3832288;76;43106;-21
2021/05/27 13:01:33;;;;;;;2.25;1.92;;;;;;;10.75;100.00;98251.51;3742959;77;44064;-21
2021/05/27 13:06:44;;;;;;;2.23;2.03;;;;;;;10.93;100.00;98244.61;3750380;78;43173;-21
2021/05/27 13:11:51;;;;;;;1.70;1.50;;;;;;;11.62;100.00;98244.69;3707407;80;43694;-21
2021/05/27 13:17:02;;;;;;;1.65;1.50;;;;;;;11.68;100.00;98235.92;3736219;77;43996;-21
2021/05/27 13:22:12;;;;;;;2.65;1.50;;;;;;;11.88;100.00;98246.30;3731584;78;43474;-22
2021/05/27 13:27:26;;;;;;;1.82;1.52;;;;;;;11.78;100.00;98243.80;3740208;78;44077;-22
2021/05/27 13:32:35;;;;;;;2.17;1.98;;;;;;;11.52;100.00;98252.14;3755074;77;44176;-22
2021/05/27 13:37:48;;;;;;;4.00;2.40;;;;;;;11.38;100.00;98262.61;3745703;78;44356;-22
2021/05/27 13:43:02;;;;;;;2.77;2.50;;;;;;;11.74;100.00;98261.86;3740926;78;43398;-22
2021/05/27 13:48:09;;;;;;;2.55;2.35;;;;;;;11.90;100.00;98256.43;3744316;77;43721;-22
2021/05/27 13:53:16;;;;;;;2.30;2.10;;;;;;;11.93;100.00;98255.23;3741462;78;43774;-22
2021/05/27 13:58:23;;;;;;;2.92;2.00;;;;;;;11.85;100.00;98262.84;3736057;79;43562;-26
2021/05/27 14:03:29;;;;;;;2.27;1.92;;;;;;;11.57;100.00;98257.88;3742964;77;44514;-23
2021/05/27 14:08:37;;;;;;;1.52;1.40;;;;;;;11.30;100.00;98261.77;3825004;76;44070;-21
2021/05/27 14:13:44;;;;;;;2.17;1.70;;;;;;;11.16;100.00;98259.25;3807559;77;43379;-21
2021/05/27 14:18:50;;;;;;;2.42;1.77;;;;;;;11.14;100.00;98266.66;3828113;76;43698;-21
2021/05/27 14:23:56;;;;;;;2.45;1.55;;;;;;;11.22;100.00;98270.73;3823942;76;45201;-21
2021/05/27 14:29:02;;;;;;;2.65;1.60;;;;;;;11.36;100.00;98278.63;3822512;77;44050;-21
2021/05/27 14:34:08;;;;;;;2.27;1.80;;;;;;;11.40;100.00;98267.33;3809241;76;43407;-21
2021/05/27 14:39:14;;;;;;;2.00;1.75;;;;;;;11.48;100.00;98272.36;3747640;79;43457;-21
2021/05/27 14:44:20;;;;;;;2.12;1.92;;;;;;;11.63;100.00;98274.70;3824707;77;43727;-20
2021/05/27 14:49:26;;;;;;;1.77;1.62;;;;;;;11.68;100.00;98274.19;3830719;76;43357;-21
2021/05/27 14:54:32;;;;;;;2.20;2.00;;;;;;;11.42;100.00;98272.54;3816849;76;44186;-21
2021/05/27 14:59:38;;;;;;;2.22;2.02;;;;;;;11.43;100.00;98278.80;3806831;77;44134;-21
2021/05/27 15:04:47;;;;;;;2.65;2.40;;;;;;;11.56;100.00;98280.47;3800118;76;43713;-21
2021/05/27 15:09:53;;;;;;;2.95;2.60;;;;;;;11.68;100.00;98289.89;3818362;76;43709;-21
2021/05/27 15:14:59;;;;;;;2.00;1.80;;;;;;;11.81;100.00;98292.56;3728828;79;44755;-21
2021/05/27 15:20:08;;;;;;;2.02;1.82;;;;;;;11.56;100.00;98283.16;3671164;79;44067;-21
2021/05/27 15:25:15;;;;;;;3.75;2.30;;;;;;;11.35;100.00;98293.95;3694893;79;44234;-20
2021/05/27 15:30:21;;;;;;;5.45;2.30;;;;;;;11.14;100.00;98300.36;3673589;80;43678;-21
2021/05/27 15:35:27;;;;;;;4.28;2.40;;;;;;;10.62;100.00;98313.11;3723674;77;43681;-21
2021/05/27 15:40:34;;;;;;;2.65;2.45;;;;;;;10.47;100.00;98311.04;3673862;79;42797;-23
2021/05/27 15:45:40;;;;;;;3.05;2.52;;;;;;;10.65;100.00;98306.02;3691375;80;44525;-21
2021/05/27 15:50:46;;;;;;;2.77;2.52;;;;;;;10.83;100.00;98316.67;3678242;79;43696;-21
2021/05/27 15:55:54;;;;;;;2.72;2.42;;;;;;;10.91;100.00;98316.70;3663869;79;44573;-21
2021/05/27 16:00:59;;;;;;;2.55;2.35;;;;;;;10.89;100.00;98324.11;3730655;77;43600;-21
2021/05/27 16:06:06;;;;;;;2.08;1.87;;;;;;;10.84;100.00;98317.53;3811100;77;44735;-21
2021/05/27 16:11:12;;;;;;;2.50;2.30;;;;;;;10.66;100.00;98337.86;3731407;77;43427;-21
2021/05/27 16:16:18;;;;;;;2.77;2.20;;;;;;;10.56;100.00;98325.87;3813391;76;44649;-21
2021/05/27 16:21:24;;;;;;;2.70;2.30;;;;;;;10.35;100.00;98335.20;3819407;77;43214;-21
2021/05/27 16:26:30;;;;;;;2.50;2.30;;;;;;;10.32;100.00;98324.74;3821492;77;44026;-22
2021/05/27 16:31:37;;;;;;;3.03;2.60;;;;;;;10.41;100.00;98330.52;3815551;76;73172;-20
2021/05/27 16:42:10;;;;;;;2.67;2.40;;;;;;;10.61;100.00;98345.09;3807349;76;44020;-21
2021/05/27 16:47:16;;;;;;;2.62;2.42;;;;;;;11.10;100.00;98334.91;3815442;76;43266;-21
2021/05/27 16:52:23;;;;;;;2.60;2.22;;;;;;;11.43;100.00;98342.19;3818828;76;43436;-21
2021/05/27 16:57:29;;;;;;;2.47;2.25;;;;;;;11.46;100.00;98341.86;3812784;76;44540;-21
2021/05/27 17:02:34;;;;;;;3.90;2.55;;;;;;;11.34;100.00;98343.55;3787263;76;43436;-21
2021/05/27 17:07:42;;;;;;;3.17;2.72;;;;;;;11.37;100.00;98345.88;3773689;77;43556;-21
2021/05/27 17:12:49;;;;;;;3.62;2.83;;;;;;;11.40;100.00;98340.16;3772559;77;43313;-21
2021/05/27 17:17:55;;;;;;;3.08;2.77;;;;;;;11.39;100.00;98342.52;3788084;77;44507;-21
2021/05/27 17:23:01;;;;;;;2.67;2.40;;;;;;;11.37;100.00;98350.45;3782121;77;43265;-21
2021/05/27 17:28:08;;;;;;;3.22;2.92;;;;;;;11.38;100.00;98348.92;3787980;77;43716;-21
2021/05/27 17:33:13;;;;;;;3.85;2.50;;;;;;;11.37;100.00;98356.67;3793816;77;44550;-21
2021/05/27 17:38:20;;;;;;;3.35;2.75;;;;;;;11.28;100.00;98357.69;3783609;77;44018;-21
2021/05/27 17:43:26;;;;;;;2.90;2.60;;;;;;;11.20;100.00;98367.12;3780062;77;43394;-21
2021/05/27 17:48:32;;;;;;;3.70;2.90;;;;;;;11.19;100.00;98369.48;3782994;77;43288;-21
2021/05/27 17:53:38;;;;;;;3.33;3.02;;;;;;;11.14;100.00;98366.42;3790487;77;43161;-21
2021/05/27 17:58:44;;;;;;;3.67;2.98;;;;;;;11.14;100.00;98379.91;3777787;77;43514;-21
2021/05/27 18:03:50;;;;;;;4.83;3.08;;;;;;;11.00;100.00;98381.41;3811519;76;43057;-21
2021/05/27 18:08:55;;;;;;;3.70;2.83;;;;;;;10.91;100.00;98396.70;3823009;76;43602;-21
2021/05/27 18:14:02;;;;;;;3.60;3.00;;;;;;;10.91;100.00;98385.92;3717311;79;43689;-21
2021/05/27 18:19:08;;;;;;;3.90;2.62;;;;;;;10.81;100.00;98393.31;3773677;77;44086;-21
2021/05/27 18:24:15;;;;;;;3.85;3.08;;;;;;;10.78;100.00;98410.66;3802142;77;43409;-21
2021/05/27 18:29:22;;;;;;;3.17;2.83;;;;;;;10.74;100.00;98413.33;3850601;76;43460;-21
2021/05/27 18:34:28;;;;;;;3.42;3.00;;;;;;;10.72;100.00;98417.54;3842398;76;43730;-21
2021/05/27 18:39:34;;;;;;;3.10;2.80;;;;;;;10.67;100.00;98414.48;3727659;79;44233;-21
2021/05/27 18:44:40;;;;;;;2.50;2.20;;;;;;;10.61;100.00;98416.48;3724877;79;43314;-21
2021/05/27 18:49:46;;;;;;;6.33;2.60;;;;;;;10.64;100.00;98419.69;3849190;76;43997;-20
2021/05/27 18:54:52;;;;;;;7.87;2.77;;;;;;;10.56;100.00;98425.54;3825935;76;43351;-21
2021/05/27 18:59:57;;;;;;;2.62;2.42;;;;;;;10.53;100.00;98429.41;3810308;76;44039;-21
2021/05/27 19:05:03;;;;;;;2.87;2.57;;;;;;;10.43;100.00;98438.94;3708935;78;43440;-21
2021/05/27 19:10:12;;;;;;;2.70;2.50;;;;;;;10.30;100.00;98446.58;3794424;77;43688;-21
2021/05/27 19:15:19;;;;;;;4.40;2.75;;;;;;;10.31;100.00;98453.65;3839342;76;43403;-21
2021/05/27 19:20:27;;;;;;;3.40;2.95;;;;;;;10.23;100.00;98458.48;3826746;76;43689;-21
2021/05/27 19:25:34;;;;;;;4.60;3.05;;;;;;;10.16;100.00;98463.67;3793221;77;44113;-21
2021/05/27 19:30:40;;;;;;;3.30;3.00;;;;;;;10.15;100.00;98461.13;3719632;79;43728;-20
2021/05/27 19:35:46;;;;;;;3.92;3.02;;;;;;;10.15;100.00;98478.14;3792171;77;69069;-21
2021/05/27 19:40:53;;;;;;;4.00;3.30;;;;;;;10.33;100.00;98478.09;3826273;76;44010;-20
2021/05/27 19:46:00;;;;;;;4.35;3.65;;;;;;;10.26;100.00;98493.69;3830540;76;44050;-21
2021/05/27 19:51:07;;;;;;;4.53;3.30;;;;;;;10.26;100.00;98497.73;3836896;76;43419;-21
2021/05/27 19:56:15;;;;;;;5.00;3.05;;;;;;;10.25;100.00;98502.77;3783772;77;44079;-21
2021/05/27 20:01:21;;;;;;;3.72;3.22;;;;;;;10.25;100.00;98510.84;3795866;77;44057;-21
2021/05/27 20:06:28;;;;;;;3.75;3.10;;;;;;;10.26;100.00;98521.45;3827059;76;44105;-21
2021/05/27 20:11:34;;;;;;;3.95;3.40;;;;;;;10.23;100.00;98524.45;3807273;76;43719;-19
2021/05/27 20:16:42;;;;;;;5.10;4.00;;;;;;;10.26;100.00;98521.45;3752163;78;43706;-20
2021/05/27 20:21:49;;;;;;;4.70;3.17;;;;;;;10.23;100.00;98539.25;3831868;76;44121;-25
2021/05/27 20:26:56;;;;;;;3.95;3.52;;;;;;;10.16;100.00;98530.13;3748440;78;43401;-23
2021/05/27 20:32:03;;;;;;;3.80;3.40;;;;;;;10.14;100.00;98534.81;3824956;76;44095;-22
2021/05/27 20:37:09;;;;;;;4.30;3.90;;;;;;;10.12;100.00;98540.84;3837083;76;44247;-23
2021/05/27 20:42:18;;;;;;;5.05;3.45;;;;;;;10.10;100.00;98544.22;3845794;76;44038;-22
2021/05/27 20:47:24;;;;;;;4.40;3.75;;;;;;;10.07;100.00;98543.17;3836705;76;44042;-23
2021/05/27 20:52:30;;;;;;;5.25;4.75;;;;;;;9.97;100.00;98545.94;3848250;76;44559;-22
2021/05/27 20:57:36;;;;;;;6.37;3.83;;;;;;;9.84;100.00;98549.86;3775548;77;43725;-21
2021/05/27 21:02:44;;;;;;;5.17;3.95;;;;;;;9.74;100.00;98546.91;3850902;76;43671;-25
2021/05/27 21:07:50;;;;;;;4.25;3.65;;;;;;;9.68;100.00;98551.06;3837410;76;43755;-26
2021/05/27 21:12:58;;;;;;;5.17;3.60;;;;;;;9.64;100.00;98559.08;3837381;76;43388;-26
2021/05/27 21:18:04;;;;;;;4.37;3.40;;;;;;;9.65;100.00;98560.77;3830632;76;44034;-24
2021/05/27 21:23:10;;;;;;;5.47;3.37;;;;;;;9.67;100.00;98558.27;3859435;76;44772;-25
2021/05/27 21:28:17;;;;;;;4.65;3.40;;;;;;;9.64;100.00;98564.45;3829581;76;43471;-25
2021/05/27 21:33:23;;;;;;;4.85;3.98;;;;;;;9.61;100.00;98570.13;3819056;76;44007;-25
2021/05/27 21:38:30;;;;;;;6.45;3.75;;;;;;;9.61;100.00;98572.34;3843423;76;44790;-25
2021/05/27 21:43:36;;;;;;;6.12;3.37;;;;;;;9.61;100.00;98571.48;3751388;79;44522;-26
2021/05/27 21:48:42;;;;;;;4.60;4.08;;;;;;;9.64;100.00;98579.25;3820618;76;44088;-26
2021/05/27 21:53:48;;;;;;;7.83;4.10;;;;;;;9.69;100.00;98579.66;3831127;76;44591;-26
2021/05/27 21:58:54;;;;;;;5.78;3.58;;;;;;;9.65;100.00;98588.50;3828948;76;44054;-26
2021/05/27 22:04:00;;;;;;;4.55;3.65;;;;;;;9.67;100.00;98589.72;3844424;76;43435;-26
2021/05/27 22:09:08;;;;;;;5.42;3.70;;;;;;;9.65;100.00;98605.16;3793595;77;43404;-26
2021/05/27 22:14:14;;;;;;;5.28;3.60;;;;;;;9.64;100.00;98614.22;3791753;77;43761;-26
2021/05/27 22:19:22;;;;;;;4.75;3.90;;;;;;;9.62;100.00;98608.14;3788482;77;45137;-26
2021/05/27 22:24:28;;;;;;;5.83;3.62;;;;;;;9.64;100.00;98612.88;3789085;77;69010;-26
2021/05/27 22:29:36;;;;;;;5.17;3.95;;;;;;;9.65;100.00;98609.20;3787906;77;44128;-26
2021/05/27 22:34:43;;;;;;;4.70;4.10;;;;;;;9.61;100.00;98607.79;3790848;77;43299;-26
2021/05/27 22:39:49;;;;;;;4.90;3.87;;;;;;;9.63;100.00;98605.80;3787616;77;44375;-26
2021/05/27 22:44:55;;;;;;;4.78;3.70;;;;;;;9.62;100.00;98605.45;3790035;77;43341;-26
2021/05/27 22:50:01;;;;;;;4.83;3.90;;;;;;;9.61;100.00;98619.89;3783754;77;44023;-26
2021/05/27 22:55:10;;;;;;;4.87;3.92;;;;;;;9.56;100.00;98621.21;3786023;77;44422;-26
2021/05/27 23:00:18;;;;;;;5.93;3.87;;;;;;;9.62;100.00;98621.11;3783349;77;69303;-26
2021/05/27 23:05:24;;;;;;;6.62;3.98;;;;;;;9.63;100.00;98622.80;3805475;76;44126;-25
2021/05/27 23:10:30;;;;;;;6.20;4.33;;;;;;;9.60;100.00;98620.89;3817829;77;44505;-25
2021/05/27 23:15:36;;;;;;;7.17;4.47;;;;;;;9.53;100.00;98616.61;3769736;78;69200;-25
2021/05/27 23:20:41;;;;;;;5.53;4.20;;;;;;;9.45;100.00;98617.86;3794664;77;43303;-25
2021/05/27 23:25:47;;;;;;;6.37;4.58;;;;;;;9.38;100.00;98625.67;3754180;78;44457;-25
2021/05/27 23:30:53;;;;;;;5.75;4.12;;;;;;;9.32;100.00;98633.00;3805318;77;43321;-25
2021/05/27 23:35:59;;;;;;;5.20;4.20;;;;;;;9.29;100.00;98640.02;3814719;77;44473;-25
2021/05/27 23:41:05;;;;;;;9.95;5.50;;;;;;;9.19;100.00;98648.11;3768234;78;44042;-25
2021/05/27 23:46:11;;;;;;;7.55;5.17;;;;;;;9.14;100.00;98648.55;3814576;77;43697;-26
2021/05/27 23:51:17;;;;;;;6.00;4.97;;;;;;;9.13;100.00;98654.08;3769797;78;44157;-25
2021/05/27 23:56:23;;;;;;;7.25;5.10;;;;;;;9.16;100.00;98654.63;3823812;77;44217;-26
